sensor_id;sensor_type;location;lat;lon;timestamp;P1;durP1;ratioP1;P2;durP2;ratioP2
76597;SDS011;65486;53.144;18.134;2023-04-12T00:01:22;18.90;;;9.30;;
76597;SDS011;65486;53.144;18.134;2023-04-12T00:03:49;17.30;;;8.70;;
76597;SDS011;65486;53.144;18.134;2023-04-12T00:06:17;19.90;;;10.30;;
76597;SDS011;65486;53.144;18.134;2023-04-12T00:08:44;16.90;;;9.60;;
76597;SDS011;65486;53.144;18.134;2023-04-12T00:11:12;12.10;;;6.00;;
76597;SDS011;65486;53.144;18.134;2023-04-12T00:13:41;18.40;;;9.50;;
76597;SDS011;65486;53.144;18.134;2023-04-12T00:16:09;16.30;;;9.10;;
76597;SDS011;65486;53.144;18.134;2023-04-12T00:18:36;18.60;;;9.70;;
76597;SDS011;65486;53.144;18.134;2023-04-12T00:21:03;16.20;;;8.30;;
76597;SDS011;65486;53.144;18.134;2023-04-12T00:23:30;16.50;;;8.10;;
76597;SDS011;65486;53.144;18.134;2023-04-12T00:26:14;18.60;;;9.10;;
76597;SDS011;65486;53.144;18.134;2023-04-12T00:28:41;17.80;;;9.20;;
76597;SDS011;65486;53.144;18.134;2023-04-12T00:31:09;19.90;;;9.00;;
76597;SDS011;65486;53.144;18.134;2023-04-12T00:33:37;15.50;;;8.70;;
76597;SDS011;65486;53.144;18.134;2023-04-12T00:36:06;16.40;;;8.30;;
76597;SDS011;65486;53.144;18.134;2023-04-12T00:38:37;18.20;;;9.70;;
76597;SDS011;65486;53.144;18.134;2023-04-12T00:41:12;14.60;;;7.30;;
76597;SDS011;65486;53.144;18.134;2023-04-12T00:43:41;17.30;;;9.30;;
76597;SDS011;65486;53.144;18.134;2023-04-12T00:46:08;18.80;;;9.60;;
76597;SDS011;65486;53.144;18.134;2023-04-12T00:48:35;20.60;;;9.70;;
76597;SDS011;65486;53.144;18.134;2023-04-12T00:51:04;20.10;;;10.20;;
76597;SDS011;65486;53.144;18.134;2023-04-12T00:53:32;16.30;;;8.00;;
76597;SDS011;65486;53.144;18.134;2023-04-12T00:55:59;16.20;;;7.60;;
76597;SDS011;65486;53.144;18.134;2023-04-12T00:58:27;21.30;;;10.70;;
76597;SDS011;65486;53.144;18.134;2023-04-12T01:00:55;23.10;;;11.30;;
76597;SDS011;65486;53.144;18.134;2023-04-12T01:03:22;22.30;;;11.40;;
76597;SDS011;65486;53.144;18.134;2023-04-12T01:11:35;16.30;;;8.20;;
76597;SDS011;65486;53.144;18.134;2023-04-12T01:14:21;16.70;;;8.20;;
76597;SDS011;65486;53.144;18.134;2023-04-12T01:16:59;15.70;;;7.30;;
76597;SDS011;65486;53.144;18.134;2023-04-12T01:19:40;18.40;;;9.50;;
76597;SDS011;65486;53.144;18.134;2023-04-12T01:28:31;13.50;;;6.50;;
76597;SDS011;65486;53.144;18.134;2023-04-12T01:31:00;16.10;;;7.70;;
76597;SDS011;65486;53.144;18.134;2023-04-12T01:33:29;15.60;;;8.40;;
76597;SDS011;65486;53.144;18.134;2023-04-12T01:35:59;21.70;;;11.10;;
76597;SDS011;65486;53.144;18.134;2023-04-12T01:38:30;24.00;;;12.70;;
76597;SDS011;65486;53.144;18.134;2023-04-12T01:40:58;23.30;;;11.30;;
76597;SDS011;65486;53.144;18.134;2023-04-12T01:43:26;21.30;;;10.30;;
76597;SDS011;65486;53.144;18.134;2023-04-12T01:45:54;21.90;;;9.50;;
76597;SDS011;65486;53.144;18.134;2023-04-12T01:48:21;20.80;;;10.10;;
76597;SDS011;65486;53.144;18.134;2023-04-12T01:53:25;14.40;;;7.40;;
76597;SDS011;65486;53.144;18.134;2023-04-12T01:56:03;20.00;;;9.50;;
76597;SDS011;65486;53.144;18.134;2023-04-12T01:58:34;17.50;;;9.00;;
76597;SDS011;65486;53.144;18.134;2023-04-12T02:01:03;9.00;;;4.40;;
76597;SDS011;65486;53.144;18.134;2023-04-12T02:03:32;15.30;;;7.90;;
76597;SDS011;65486;53.144;18.134;2023-04-12T02:06:00;17.40;;;8.50;;
76597;SDS011;65486;53.144;18.134;2023-04-12T02:08:29;16.80;;;7.90;;
76597;SDS011;65486;53.144;18.134;2023-04-12T02:10:56;19.70;;;10.20;;
76597;SDS011;65486;53.144;18.134;2023-04-12T02:13:23;20.20;;;10.00;;
76597;SDS011;65486;53.144;18.134;2023-04-12T02:15:52;21.90;;;11.00;;
76597;SDS011;65486;53.144;18.134;2023-04-12T02:18:20;21.30;;;10.00;;
76597;SDS011;65486;53.144;18.134;2023-04-12T02:20:50;15.90;;;7.90;;
76597;SDS011;65486;53.144;18.134;2023-04-12T02:23:21;17.30;;;9.10;;
76597;SDS011;65486;53.144;18.134;2023-04-12T02:25:50;20.40;;;10.20;;
76597;SDS011;65486;53.144;18.134;2023-04-12T02:28:18;21.00;;;11.10;;
76597;SDS011;65486;53.144;18.134;2023-04-12T02:30:46;15.00;;;8.30;;
76597;SDS011;65486;53.144;18.134;2023-04-12T02:33:14;14.50;;;7.50;;
76597;SDS011;65486;53.144;18.134;2023-04-12T02:35:42;14.10;;;7.70;;
76597;SDS011;65486;53.144;18.134;2023-04-12T02:38:09;17.90;;;8.50;;
76597;SDS011;65486;53.144;18.134;2023-04-12T02:40:38;14.80;;;8.00;;
76597;SDS011;65486;53.144;18.134;2023-04-12T02:43:12;18.60;;;9.20;;
76597;SDS011;65486;53.144;18.134;2023-04-12T02:45:45;18.80;;;8.70;;
76597;SDS011;65486;53.144;18.134;2023-04-12T02:48:13;13.50;;;6.90;;
76597;SDS011;65486;53.144;18.134;2023-04-12T02:50:40;15.90;;;7.80;;
76597;SDS011;65486;53.144;18.134;2023-04-12T02:53:16;13.70;;;7.10;;
76597;SDS011;65486;53.144;18.134;2023-04-12T02:55:46;14.10;;;7.00;;
76597;SDS011;65486;53.144;18.134;2023-04-12T02:58:15;12.40;;;6.70;;
76597;SDS011;65486;53.144;18.134;2023-04-12T03:00:46;13.70;;;6.40;;
76597;SDS011;65486;53.144;18.134;2023-04-12T03:03:15;15.80;;;8.60;;
76597;SDS011;65486;53.144;18.134;2023-04-12T03:05:43;12.40;;;6.00;;
76597;SDS011;65486;53.144;18.134;2023-04-12T03:08:13;13.70;;;7.70;;
76597;SDS011;65486;53.144;18.134;2023-04-12T03:10:45;14.30;;;7.80;;
76597;SDS011;65486;53.144;18.134;2023-04-12T03:13:12;14.00;;;7.60;;
76597;SDS011;65486;53.144;18.134;2023-04-12T03:15:45;13.70;;;6.70;;
76597;SDS011;65486;53.144;18.134;2023-04-12T03:18:14;13.70;;;7.50;;
76597;SDS011;65486;53.144;18.134;2023-04-12T03:20:47;11.00;;;6.30;;
76597;SDS011;65486;53.144;18.134;2023-04-12T03:23:15;14.70;;;5.50;;
76597;SDS011;65486;53.144;18.134;2023-04-12T03:25:45;17.50;;;7.30;;
76597;SDS011;65486;53.144;18.134;2023-04-12T03:28:47;9.70;;;5.30;;
76597;SDS011;65486;53.144;18.134;2023-04-12T03:31:15;10.20;;;5.20;;
76597;SDS011;65486;53.144;18.134;2023-04-12T03:33:46;11.30;;;5.70;;
76597;SDS011;65486;53.144;18.134;2023-04-12T03:36:21;12.70;;;7.10;;
76597;SDS011;65486;53.144;18.134;2023-04-12T03:38:52;12.70;;;6.30;;
76597;SDS011;65486;53.144;18.134;2023-04-12T03:41:22;14.40;;;6.80;;
76597;SDS011;65486;53.144;18.134;2023-04-12T03:43:49;12.50;;;6.40;;
76597;SDS011;65486;53.144;18.134;2023-04-12T03:46:18;12.80;;;6.60;;
76597;SDS011;65486;53.144;18.134;2023-04-12T03:48:54;13.10;;;7.10;;
76597;SDS011;65486;53.144;18.134;2023-04-12T03:51:23;10.90;;;5.40;;
76597;SDS011;65486;53.144;18.134;2023-04-12T03:53:55;12.50;;;6.40;;
76597;SDS011;65486;53.144;18.134;2023-04-12T03:56:25;14.50;;;6.40;;
76597;SDS011;65486;53.144;18.134;2023-04-12T03:58:54;11.90;;;6.30;;
76597;SDS011;65486;53.144;18.134;2023-04-12T04:01:22;11.60;;;6.60;;
76597;SDS011;65486;53.144;18.134;2023-04-12T04:03:49;13.40;;;6.60;;
76597;SDS011;65486;53.144;18.134;2023-04-12T04:06:23;10.80;;;5.80;;
76597;SDS011;65486;53.144;18.134;2023-04-12T04:08:51;8.40;;;4.40;;
76597;SDS011;65486;53.144;18.134;2023-04-12T04:11:18;12.50;;;7.00;;
76597;SDS011;65486;53.144;18.134;2023-04-12T04:13:52;10.10;;;5.90;;
76597;SDS011;65486;53.144;18.134;2023-04-12T04:16:43;10.40;;;5.50;;
76597;SDS011;65486;53.144;18.134;2023-04-12T04:19:11;10.80;;;6.20;;
76597;SDS011;65486;53.144;18.134;2023-04-12T04:21:41;13.80;;;7.10;;
76597;SDS011;65486;53.144;18.134;2023-04-12T04:24:08;12.10;;;6.30;;
76597;SDS011;65486;53.144;18.134;2023-04-12T04:26:37;12.70;;;6.70;;
76597;SDS011;65486;53.144;18.134;2023-04-12T04:29:09;12.90;;;6.70;;
76597;SDS011;65486;53.144;18.134;2023-04-12T04:31:41;12.10;;;6.20;;
76597;SDS011;65486;53.144;18.134;2023-04-12T04:34:12;11.50;;;6.70;;
76597;SDS011;65486;53.144;18.134;2023-04-12T04:36:41;13.00;;;7.00;;
76597;SDS011;65486;53.144;18.134;2023-04-12T04:39:09;11.90;;;7.40;;
76597;SDS011;65486;53.144;18.134;2023-04-12T04:41:40;14.50;;;8.70;;
76597;SDS011;65486;53.144;18.134;2023-04-12T04:44:12;14.30;;;8.60;;
76597;SDS011;65486;53.144;18.134;2023-04-12T04:46:51;11.10;;;6.00;;
76597;SDS011;65486;53.144;18.134;2023-04-12T04:49:19;15.60;;;8.70;;
76597;SDS011;65486;53.144;18.134;2023-04-12T04:51:47;13.50;;;6.70;;
76597;SDS011;65486;53.144;18.134;2023-04-12T04:54:16;21.10;;;9.10;;
76597;SDS011;65486;53.144;18.134;2023-04-12T04:56:43;22.50;;;10.40;;
76597;SDS011;65486;53.144;18.134;2023-04-12T04:59:12;19.60;;;9.10;;
76597;SDS011;65486;53.144;18.134;2023-04-12T05:01:39;13.90;;;7.00;;
76597;SDS011;65486;53.144;18.134;2023-04-12T05:04:06;13.40;;;6.90;;
76597;SDS011;65486;53.144;18.134;2023-04-12T05:06:35;14.20;;;7.00;;
76597;SDS011;65486;53.144;18.134;2023-04-12T05:09:03;11.20;;;6.30;;
76597;SDS011;65486;53.144;18.134;2023-04-12T05:11:33;12.80;;;6.70;;
76597;SDS011;65486;53.144;18.134;2023-04-12T05:14:02;19.80;;;9.40;;
76597;SDS011;65486;53.144;18.134;2023-04-12T05:16:29;11.90;;;6.60;;
76597;SDS011;65486;53.144;18.134;2023-04-12T05:18:57;15.80;;;9.20;;
76597;SDS011;65486;53.144;18.134;2023-04-12T05:21:24;13.80;;;7.80;;
76597;SDS011;65486;53.144;18.134;2023-04-12T05:23:52;12.00;;;6.20;;
76597;SDS011;65486;53.144;18.134;2023-04-12T05:26:19;15.00;;;8.60;;
76597;SDS011;65486;53.144;18.134;2023-04-12T05:28:48;16.50;;;8.30;;
76597;SDS011;65486;53.144;18.134;2023-04-12T05:31:15;14.50;;;7.50;;
76597;SDS011;65486;53.144;18.134;2023-04-12T05:33:44;13.60;;;8.00;;
76597;SDS011;65486;53.144;18.134;2023-04-12T05:36:15;15.50;;;8.20;;
76597;SDS011;65486;53.144;18.134;2023-04-12T05:38:43;15.00;;;7.40;;
76597;SDS011;65486;53.144;18.134;2023-04-12T05:41:12;12.80;;;6.80;;
76597;SDS011;65486;53.144;18.134;2023-04-12T05:43:39;13.50;;;7.20;;
76597;SDS011;65486;53.144;18.134;2023-04-12T05:46:07;11.20;;;6.90;;
76597;SDS011;65486;53.144;18.134;2023-04-12T05:48:35;13.90;;;7.50;;
76597;SDS011;65486;53.144;18.134;2023-04-12T05:51:03;14.00;;;7.60;;
76597;SDS011;65486;53.144;18.134;2023-04-12T05:53:31;13.20;;;7.70;;
76597;SDS011;65486;53.144;18.134;2023-04-12T05:56:01;14.70;;;8.70;;
76597;SDS011;65486;53.144;18.134;2023-04-12T05:58:32;11.20;;;6.80;;
76597;SDS011;65486;53.144;18.134;2023-04-12T06:01:05;14.80;;;8.90;;
76597;SDS011;65486;53.144;18.134;2023-04-12T06:03:32;13.60;;;7.50;;
76597;SDS011;65486;53.144;18.134;2023-04-12T06:06:07;15.00;;;8.20;;
76597;SDS011;65486;53.144;18.134;2023-04-12T06:08:39;12.80;;;7.70;;
76597;SDS011;65486;53.144;18.134;2023-04-12T06:11:08;14.10;;;8.10;;
76597;SDS011;65486;53.144;18.134;2023-04-12T06:13:42;13.70;;;7.50;;
76597;SDS011;65486;53.144;18.134;2023-04-12T06:16:12;14.10;;;8.00;;
76597;SDS011;65486;53.144;18.134;2023-04-12T06:18:39;17.60;;;8.50;;
76597;SDS011;65486;53.144;18.134;2023-04-12T06:21:06;10.10;;;6.10;;
76597;SDS011;65486;53.144;18.134;2023-04-12T06:23:33;16.20;;;7.40;;
76597;SDS011;65486;53.144;18.134;2023-04-12T06:26:00;12.30;;;7.30;;
76597;SDS011;65486;53.144;18.134;2023-04-12T06:28:29;14.70;;;8.00;;
76597;SDS011;65486;53.144;18.134;2023-04-12T06:30:56;14.60;;;7.90;;
76597;SDS011;65486;53.144;18.134;2023-04-12T06:33:24;14.50;;;8.60;;
76597;SDS011;65486;53.144;18.134;2023-04-12T06:35:52;11.30;;;6.60;;
76597;SDS011;65486;53.144;18.134;2023-04-12T06:38:19;13.80;;;7.40;;
76597;SDS011;65486;53.144;18.134;2023-04-12T06:40:46;11.20;;;6.40;;
76597;SDS011;65486;53.144;18.134;2023-04-12T06:43:18;13.10;;;7.40;;
76597;SDS011;65486;53.144;18.134;2023-04-12T06:45:45;10.30;;;5.70;;
76597;SDS011;65486;53.144;18.134;2023-04-12T06:48:17;12.70;;;7.00;;
76597;SDS011;65486;53.144;18.134;2023-04-12T06:50:47;11.00;;;6.60;;
76597;SDS011;65486;53.144;18.134;2023-04-12T06:53:14;10.60;;;6.10;;
76597;SDS011;65486;53.144;18.134;2023-04-12T06:55:41;11.70;;;6.70;;
76597;SDS011;65486;53.144;18.134;2023-04-12T06:58:08;6.20;;;3.60;;
76597;SDS011;65486;53.144;18.134;2023-04-12T07:00:35;7.60;;;4.20;;
76597;SDS011;65486;53.144;18.134;2023-04-12T07:03:03;7.60;;;4.30;;
76597;SDS011;65486;53.144;18.134;2023-04-12T07:05:32;8.10;;;4.60;;
76597;SDS011;65486;53.144;18.134;2023-04-12T07:08:03;8.30;;;4.20;;
76597;SDS011;65486;53.144;18.134;2023-04-12T07:10:31;6.60;;;3.50;;
76597;SDS011;65486;53.144;18.134;2023-04-12T07:12:58;5.70;;;2.60;;
76597;SDS011;65486;53.144;18.134;2023-04-12T07:15:29;5.00;;;2.50;;
76597;SDS011;65486;53.144;18.134;2023-04-12T07:17:57;5.10;;;2.70;;
76597;SDS011;65486;53.144;18.134;2023-04-12T07:20:24;4.50;;;2.40;;
76597;SDS011;65486;53.144;18.134;2023-04-12T07:22:52;4.60;;;2.40;;
76597;SDS011;65486;53.144;18.134;2023-04-12T07:25:18;4.10;;;2.20;;
76597;SDS011;65486;53.144;18.134;2023-04-12T07:27:45;4.30;;;2.20;;
76597;SDS011;65486;53.144;18.134;2023-04-12T07:30:12;4.30;;;2.50;;
76597;SDS011;65486;53.144;18.134;2023-04-12T07:32:42;5.20;;;2.90;;
76597;SDS011;65486;53.144;18.134;2023-04-12T07:35:09;4.80;;;2.40;;
76597;SDS011;65486;53.144;18.134;2023-04-12T07:37:36;4.90;;;2.10;;
76597;SDS011;65486;53.144;18.134;2023-04-12T07:40:04;5.20;;;2.50;;
76597;SDS011;65486;53.144;18.134;2023-04-12T07:42:31;5.70;;;2.80;;
76597;SDS011;65486;53.144;18.134;2023-04-12T07:45:01;5.10;;;2.70;;
76597;SDS011;65486;53.144;18.134;2023-04-12T07:47:29;4.40;;;2.30;;
76597;SDS011;65486;53.144;18.134;2023-04-12T07:49:56;4.90;;;3.10;;
76597;SDS011;65486;53.144;18.134;2023-04-12T07:52:24;6.10;;;2.50;;
76597;SDS011;65486;53.144;18.134;2023-04-12T07:54:53;5.90;;;2.90;;
76597;SDS011;65486;53.144;18.134;2023-04-12T07:57:20;6.00;;;3.00;;
76597;SDS011;65486;53.144;18.134;2023-04-12T07:59:48;5.20;;;3.20;;
76597;SDS011;65486;53.144;18.134;2023-04-12T08:02:16;6.30;;;2.80;;
76597;SDS011;65486;53.144;18.134;2023-04-12T08:04:50;6.00;;;3.10;;
76597;SDS011;65486;53.144;18.134;2023-04-12T08:07:18;8.00;;;3.70;;
76597;SDS011;65486;53.144;18.134;2023-04-12T08:09:45;5.60;;;3.20;;
76597;SDS011;65486;53.144;18.134;2023-04-12T08:12:14;9.50;;;3.80;;
76597;SDS011;65486;53.144;18.134;2023-04-12T08:14:41;6.00;;;2.80;;
76597;SDS011;65486;53.144;18.134;2023-04-12T08:17:09;6.20;;;3.10;;
76597;SDS011;65486;53.144;18.134;2023-04-12T08:19:38;7.40;;;3.00;;
76597;SDS011;65486;53.144;18.134;2023-04-12T08:22:07;6.60;;;3.20;;
76597;SDS011;65486;53.144;18.134;2023-04-12T08:24:38;5.80;;;3.30;;
76597;SDS011;65486;53.144;18.134;2023-04-12T08:27:04;5.50;;;3.10;;
76597;SDS011;65486;53.144;18.134;2023-04-12T08:29:34;4.80;;;2.70;;
76597;SDS011;65486;53.144;18.134;2023-04-12T08:32:08;4.90;;;2.70;;
76597;SDS011;65486;53.144;18.134;2023-04-12T08:34:37;5.90;;;2.80;;
76597;SDS011;65486;53.144;18.134;2023-04-12T08:37:04;6.60;;;3.40;;
76597;SDS011;65486;53.144;18.134;2023-04-12T08:39:31;5.90;;;3.20;;
76597;SDS011;65486;53.144;18.134;2023-04-12T08:42:01;6.30;;;2.90;;
76597;SDS011;65486;53.144;18.134;2023-04-12T08:44:34;5.00;;;2.00;;
76597;SDS011;65486;53.144;18.134;2023-04-12T08:47:04;5.90;;;2.80;;
76597;SDS011;65486;53.144;18.134;2023-04-12T08:49:33;7.20;;;3.30;;
76597;SDS011;65486;53.144;18.134;2023-04-12T08:52:07;6.90;;;2.20;;
76597;SDS011;65486;53.144;18.134;2023-04-12T08:54:35;6.90;;;2.80;;
76597;SDS011;65486;53.144;18.134;2023-04-12T08:57:03;5.60;;;3.00;;
76597;SDS011;65486;53.144;18.134;2023-04-12T08:59:35;5.20;;;2.70;;
76597;SDS011;65486;53.144;18.134;2023-04-12T09:02:03;4.90;;;2.70;;
76597;SDS011;65486;53.144;18.134;2023-04-12T09:04:30;6.20;;;2.40;;
76597;SDS011;65486;53.144;18.134;2023-04-12T09:06:57;5.10;;;2.90;;
76597;SDS011;65486;53.144;18.134;2023-04-12T09:12:26;5.80;;;3.00;;
76597;SDS011;65486;53.144;18.134;2023-04-12T09:15:09;8.40;;;3.20;;
76597;SDS011;65486;53.144;18.134;2023-04-12T09:17:39;6.40;;;3.40;;
76597;SDS011;65486;53.144;18.134;2023-04-12T09:22:47;6.30;;;3.00;;
76597;SDS011;65486;53.144;18.134;2023-04-12T09:25:15;6.00;;;3.20;;
76597;SDS011;65486;53.144;18.134;2023-04-12T09:30:41;5.60;;;2.70;;
76597;SDS011;65486;53.144;18.134;2023-04-12T09:33:10;7.90;;;3.20;;
76597;SDS011;65486;53.144;18.134;2023-04-12T09:35:38;5.90;;;3.20;;
76597;SDS011;65486;53.144;18.134;2023-04-12T09:38:10;9.20;;;4.40;;
76597;SDS011;65486;53.144;18.134;2023-04-12T09:40:37;10.20;;;4.90;;
76597;SDS011;65486;53.144;18.134;2023-04-12T09:43:05;7.50;;;3.50;;
76597;SDS011;65486;53.144;18.134;2023-04-12T09:45:33;8.40;;;4.60;;
76597;SDS011;65486;53.144;18.134;2023-04-12T09:48:01;9.80;;;4.90;;
76597;SDS011;65486;53.144;18.134;2023-04-12T09:50:29;8.40;;;4.80;;
76597;SDS011;65486;53.144;18.134;2023-04-12T09:53:00;8.00;;;4.60;;
76597;SDS011;65486;53.144;18.134;2023-04-12T09:55:45;8.60;;;4.60;;
76597;SDS011;65486;53.144;18.134;2023-04-12T09:58:17;10.00;;;4.60;;
76597;SDS011;65486;53.144;18.134;2023-04-12T10:00:46;6.30;;;3.80;;
76597;SDS011;65486;53.144;18.134;2023-04-12T10:03:15;5.50;;;3.00;;
76597;SDS011;65486;53.144;18.134;2023-04-12T10:05:43;5.40;;;2.90;;
76597;SDS011;65486;53.144;18.134;2023-04-12T10:08:11;4.30;;;2.30;;
76597;SDS011;65486;53.144;18.134;2023-04-12T10:10:39;5.70;;;3.40;;
76597;SDS011;65486;53.144;18.134;2023-04-12T10:13:14;5.20;;;3.00;;
76597;SDS011;65486;53.144;18.134;2023-04-12T10:15:44;6.30;;;3.50;;
76597;SDS011;65486;53.144;18.134;2023-04-12T10:18:12;8.10;;;3.70;;
76597;SDS011;65486;53.144;18.134;2023-04-12T10:20:39;8.10;;;3.50;;
76597;SDS011;65486;53.144;18.134;2023-04-12T10:23:09;4.60;;;2.70;;
76597;SDS011;65486;53.144;18.134;2023-04-12T10:25:38;5.90;;;2.90;;
76597;SDS011;65486;53.144;18.134;2023-04-12T10:28:14;5.50;;;3.20;;
76597;SDS011;65486;53.144;18.134;2023-04-12T10:30:45;4.90;;;2.80;;
76597;SDS011;65486;53.144;18.134;2023-04-12T10:33:15;3.90;;;2.40;;
76597;SDS011;65486;53.144;18.134;2023-04-12T10:38:14;2.70;;;0.90;;
76597;SDS011;65486;53.144;18.134;2023-04-12T10:43:39;4.20;;;2.00;;
76597;SDS011;65486;53.144;18.134;2023-04-12T10:46:07;5.50;;;3.60;;
76597;SDS011;65486;53.144;18.134;2023-04-12T10:49:07;6.20;;;3.30;;
76597;SDS011;65486;53.144;18.134;2023-04-12T10:51:34;5.80;;;3.80;;
76597;SDS011;65486;53.144;18.134;2023-04-12T10:56:47;6.00;;;3.10;;
76597;SDS011;65486;53.144;18.134;2023-04-12T10:59:25;5.50;;;2.90;;
76597;SDS011;65486;53.144;18.134;2023-04-12T11:02:21;3.40;;;1.80;;
76597;SDS011;65486;53.144;18.134;2023-04-12T11:05:08;2.40;;;1.30;;
76597;SDS011;65486;53.144;18.134;2023-04-12T11:07:52;3.90;;;1.50;;
76597;SDS011;65486;53.144;18.134;2023-04-12T11:10:39;3.70;;;1.90;;
76597;SDS011;65486;53.144;18.134;2023-04-12T11:13:13;5.30;;;2.60;;
76597;SDS011;65486;53.144;18.134;2023-04-12T11:15:40;4.20;;;2.20;;
76597;SDS011;65486;53.144;18.134;2023-04-12T11:18:16;3.80;;;2.30;;
76597;SDS011;65486;53.144;18.134;2023-04-12T11:20:43;3.30;;;1.70;;
76597;SDS011;65486;53.144;18.134;2023-04-12T11:23:11;6.20;;;2.50;;
76597;SDS011;65486;53.144;18.134;2023-04-12T11:25:38;3.90;;;2.00;;
76597;SDS011;65486;53.144;18.134;2023-04-12T11:28:05;4.60;;;2.60;;
76597;SDS011;65486;53.144;18.134;2023-04-12T11:30:32;3.70;;;1.90;;
76597;SDS011;65486;53.144;18.134;2023-04-12T11:32:59;4.10;;;2.60;;
76597;SDS011;65486;53.144;18.134;2023-04-12T11:35:27;4.50;;;2.80;;
76597;SDS011;65486;53.144;18.134;2023-04-12T11:37:56;2.50;;;1.30;;
76597;SDS011;65486;53.144;18.134;2023-04-12T11:40:31;6.10;;;2.80;;
76597;SDS011;65486;53.144;18.134;2023-04-12T11:42:58;4.30;;;2.50;;
76597;SDS011;65486;53.144;18.134;2023-04-12T11:45:25;5.10;;;3.20;;
76597;SDS011;65486;53.144;18.134;2023-04-12T11:47:52;5.30;;;3.00;;
76597;SDS011;65486;53.144;18.134;2023-04-12T11:50:26;5.20;;;2.80;;
76597;SDS011;65486;53.144;18.134;2023-04-12T11:53:07;4.80;;;3.00;;
76597;SDS011;65486;53.144;18.134;2023-04-12T11:55:39;5.30;;;3.50;;
76597;SDS011;65486;53.144;18.134;2023-04-12T11:58:06;6.80;;;3.30;;
76597;SDS011;65486;53.144;18.134;2023-04-12T12:00:34;5.20;;;3.40;;
76597;SDS011;65486;53.144;18.134;2023-04-12T12:03:03;5.80;;;3.40;;
76597;SDS011;65486;53.144;18.134;2023-04-12T12:05:37;5.70;;;3.10;;
76597;SDS011;65486;53.144;18.134;2023-04-12T12:08:07;5.70;;;3.60;;
76597;SDS011;65486;53.144;18.134;2023-04-12T12:10:38;6.90;;;4.20;;
76597;SDS011;65486;53.144;18.134;2023-04-12T12:13:12;5.70;;;4.00;;
76597;SDS011;65486;53.144;18.134;2023-04-12T12:15:44;9.40;;;3.70;;
76597;SDS011;65486;53.144;18.134;2023-04-12T12:18:11;22.40;;;11.70;;
76597;SDS011;65486;53.144;18.134;2023-04-12T12:20:39;26.60;;;14.30;;
76597;SDS011;65486;53.144;18.134;2023-04-12T12:23:07;23.60;;;12.10;;
76597;SDS011;65486;53.144;18.134;2023-04-12T12:25:34;9.40;;;4.80;;
76597;SDS011;65486;53.144;18.134;2023-04-12T12:28:05;7.50;;;4.90;;
76597;SDS011;65486;53.144;18.134;2023-04-12T12:30:38;7.00;;;4.40;;
76597;SDS011;65486;53.144;18.134;2023-04-12T12:33:05;6.70;;;4.10;;
76597;SDS011;65486;53.144;18.134;2023-04-12T12:35:35;8.10;;;4.80;;
76597;SDS011;65486;53.144;18.134;2023-04-12T12:38:05;7.60;;;5.10;;
76597;SDS011;65486;53.144;18.134;2023-04-12T12:40:33;8.40;;;5.10;;
76597;SDS011;65486;53.144;18.134;2023-04-12T12:43:03;8.20;;;4.80;;
76597;SDS011;65486;53.144;18.134;2023-04-12T12:45:39;7.00;;;4.60;;
76597;SDS011;65486;53.144;18.134;2023-04-12T12:48:07;9.70;;;5.10;;
76597;SDS011;65486;53.144;18.134;2023-04-12T12:50:35;9.20;;;5.20;;
76597;SDS011;65486;53.144;18.134;2023-04-12T12:53:02;8.80;;;5.20;;
76597;SDS011;65486;53.144;18.134;2023-04-12T12:55:40;8.90;;;4.90;;
76597;SDS011;65486;53.144;18.134;2023-04-12T12:58:07;11.30;;;5.80;;
76597;SDS011;65486;53.144;18.134;2023-04-12T13:00:34;10.40;;;5.60;;
76597;SDS011;65486;53.144;18.134;2023-04-12T13:03:03;9.60;;;5.40;;
76597;SDS011;65486;53.144;18.134;2023-04-12T13:05:30;8.30;;;5.40;;
76597;SDS011;65486;53.144;18.134;2023-04-12T13:07:58;9.50;;;6.00;;
76597;SDS011;65486;53.144;18.134;2023-04-12T13:10:25;8.40;;;5.60;;
76597;SDS011;65486;53.144;18.134;2023-04-12T13:12:53;9.00;;;6.30;;
76597;SDS011;65486;53.144;18.134;2023-04-12T13:15:19;10.80;;;5.30;;
76597;SDS011;65486;53.144;18.134;2023-04-12T13:17:51;10.50;;;6.20;;
76597;SDS011;65486;53.144;18.134;2023-04-12T13:20:19;8.30;;;5.30;;
76597;SDS011;65486;53.144;18.134;2023-04-12T13:22:47;9.10;;;5.30;;
76597;SDS011;65486;53.144;18.134;2023-04-12T13:25:15;8.20;;;5.10;;
76597;SDS011;65486;53.144;18.134;2023-04-12T13:27:43;9.20;;;5.00;;
76597;SDS011;65486;53.144;18.134;2023-04-12T13:30:10;9.10;;;5.30;;
76597;SDS011;65486;53.144;18.134;2023-04-12T13:32:38;9.80;;;5.50;;
76597;SDS011;65486;53.144;18.134;2023-04-12T13:35:05;7.70;;;5.00;;
76597;SDS011;65486;53.144;18.134;2023-04-12T13:37:33;9.10;;;6.20;;
76597;SDS011;65486;53.144;18.134;2023-04-12T13:40:01;11.70;;;6.60;;
76597;SDS011;65486;53.144;18.134;2023-04-12T13:42:28;9.00;;;5.60;;
76597;SDS011;65486;53.144;18.134;2023-04-12T13:44:55;8.80;;;5.30;;
76597;SDS011;65486;53.144;18.134;2023-04-12T13:47:23;8.30;;;5.20;;
76597;SDS011;65486;53.144;18.134;2023-04-12T13:49:50;10.40;;;6.40;;
76597;SDS011;65486;53.144;18.134;2023-04-12T13:52:24;11.20;;;6.80;;
76597;SDS011;65486;53.144;18.134;2023-04-12T13:54:54;13.40;;;7.40;;
76597;SDS011;65486;53.144;18.134;2023-04-12T13:57:25;11.40;;;5.80;;
76597;SDS011;65486;53.144;18.134;2023-04-12T13:59:52;12.30;;;6.80;;
76597;SDS011;65486;53.144;18.134;2023-04-12T14:02:23;10.50;;;6.50;;
76597;SDS011;65486;53.144;18.134;2023-04-12T14:04:53;11.10;;;6.20;;
76597;SDS011;65486;53.144;18.134;2023-04-12T14:07:39;10.50;;;6.10;;
76597;SDS011;65486;53.144;18.134;2023-04-12T14:10:06;15.20;;;7.50;;
76597;SDS011;65486;53.144;18.134;2023-04-12T14:12:34;13.20;;;7.00;;
76597;SDS011;65486;53.144;18.134;2023-04-12T14:15:03;19.30;;;9.70;;
76597;SDS011;65486;53.144;18.134;2023-04-12T14:17:32;20.90;;;9.30;;
76597;SDS011;65486;53.144;18.134;2023-04-12T14:19:59;19.90;;;9.70;;
76597;SDS011;65486;53.144;18.134;2023-04-12T14:22:28;17.90;;;9.10;;
76597;SDS011;65486;53.144;18.134;2023-04-12T14:24:55;18.10;;;8.70;;
76597;SDS011;65486;53.144;18.134;2023-04-12T14:27:30;17.40;;;8.70;;
76597;SDS011;65486;53.144;18.134;2023-04-12T14:29:58;19.10;;;9.30;;
76597;SDS011;65486;53.144;18.134;2023-04-12T14:32:25;19.30;;;9.90;;
76597;SDS011;65486;53.144;18.134;2023-04-12T14:34:54;19.90;;;9.10;;
76597;SDS011;65486;53.144;18.134;2023-04-12T14:37:21;18.00;;;10.00;;
76597;SDS011;65486;53.144;18.134;2023-04-12T14:39:49;19.30;;;9.30;;
76597;SDS011;65486;53.144;18.134;2023-04-12T14:42:18;15.50;;;8.70;;
76597;SDS011;65486;53.144;18.134;2023-04-12T14:44:48;15.40;;;8.80;;
76597;SDS011;65486;53.144;18.134;2023-04-12T14:47:18;15.10;;;7.80;;
76597;SDS011;65486;53.144;18.134;2023-04-12T14:49:48;16.10;;;8.30;;
76597;SDS011;65486;53.144;18.134;2023-04-12T14:52:15;14.30;;;7.60;;
76597;SDS011;65486;53.144;18.134;2023-04-12T14:54:44;14.60;;;7.10;;
76597;SDS011;65486;53.144;18.134;2023-04-12T14:57:14;13.80;;;6.90;;
76597;SDS011;65486;53.144;18.134;2023-04-12T14:59:42;14.40;;;8.00;;
76597;SDS011;65486;53.144;18.134;2023-04-12T15:02:09;13.80;;;7.80;;
76597;SDS011;65486;53.144;18.134;2023-04-12T15:04:36;11.60;;;6.60;;
76597;SDS011;65486;53.144;18.134;2023-04-12T15:07:04;9.80;;;5.20;;
76597;SDS011;65486;53.144;18.134;2023-04-12T15:09:33;10.30;;;6.70;;
76597;SDS011;65486;53.144;18.134;2023-04-12T15:12:01;12.60;;;7.50;;